createdAt,value
2019-04-06T08:15:29.386Z,18.10
2019-04-06T08:18:00.611Z,16.70
2019-04-06T08:20:39.509Z,16.70
2019-04-06T08:23:10.368Z,16.50
2019-04-06T08:25:41.399Z,16.60
2019-04-06T08:28:15.032Z,16.70
2019-04-06T08:30:47.062Z,16.80
2019-04-06T08:33:17.978Z,17.00
2019-04-06T08:35:49.213Z,17.20
2019-04-06T08:38:20.597Z,17.30
2019-04-06T08:40:51.681Z,17.30
2019-04-06T08:43:22.744Z,17.30
2019-04-06T08:45:54.989Z,17.40
2019-04-06T08:48:28.877Z,17.30
2019-04-06T08:50:59.619Z,17.50
2019-04-06T08:53:30.693Z,17.60
2019-04-06T08:56:01.384Z,17.60
2019-04-06T08:58:32.073Z,17.70
2019-04-06T09:01:02.939Z,17.70
2019-04-06T09:03:33.669Z,17.80
2019-04-06T09:06:04.340Z,17.70
2019-04-06T09:08:40.127Z,17.70
2019-04-06T09:11:13.740Z,18.00
2019-04-06T09:13:45.266Z,18.10
2019-04-06T09:16:16.270Z,18.10
2019-04-06T09:18:49.343Z,18.10
2019-04-06T09:21:22.641Z,18.20
2019-04-06T09:23:58.237Z,18.30
2019-04-06T09:26:30.002Z,18.30
2019-04-06T09:29:00.803Z,18.50
2019-04-06T09:31:31.541Z,18.70
2019-04-06T09:34:03.420Z,18.80
2019-04-06T09:36:34.401Z,18.90
2019-04-06T09:39:06.555Z,19.10
2019-04-06T09:41:49.547Z,19.10
2019-04-06T09:44:31.370Z,19.20
2019-04-06T09:47:11.391Z,19.30
2019-04-06T09:49:55.443Z,19.40
2019-04-06T09:52:32.923Z,19.50
2019-04-06T09:55:20.616Z,19.70
2019-04-06T09:58:16.740Z,19.70
2019-04-06T10:01:12.590Z,19.70
2019-04-06T10:03:56.377Z,19.90
2019-04-06T10:06:39.291Z,20.00
2019-04-06T10:09:29.407Z,20.20
2019-04-06T10:12:29.487Z,20.20
2019-04-06T10:15:24.377Z,20.40
2019-04-06T10:18:17.934Z,20.30
2019-04-06T10:21:08.455Z,20.40
2019-04-06T10:23:57.619Z,20.60
2019-04-06T10:26:55.359Z,20.70
2019-04-06T10:29:49.195Z,20.70
2019-04-06T10:32:33.750Z,20.90
2019-04-06T10:35:31.192Z,21.00
2019-04-06T10:38:20.834Z,20.90
2019-04-06T10:41:11.287Z,20.60
2019-04-06T10:44:07.517Z,20.50
2019-04-06T10:47:06.508Z,20.50
2019-04-06T10:49:57.637Z,20.60
2019-04-06T10:52:42.681Z,20.80
2019-04-06T10:55:31.663Z,20.60
2019-04-06T10:58:19.846Z,20.50
2019-04-06T11:01:12.100Z,20.50
2019-04-06T11:04:15.540Z,20.70
2019-04-06T11:07:11.204Z,20.90
2019-04-06T11:09:56.770Z,21.00
2019-04-06T11:12:51.203Z,21.10
2019-04-06T11:15:39.676Z,21.30
2019-04-06T11:18:35.233Z,21.40
2019-04-06T11:21:23.978Z,21.30
2019-04-06T11:24:32.864Z,21.30
2019-04-06T11:27:26.937Z,21.30
2019-04-06T11:30:16.677Z,21.30
2019-04-06T11:33:05.221Z,21.20
2019-04-06T11:35:46.047Z,21.20
2019-04-06T11:38:51.018Z,21.30
2019-04-06T11:41:47.827Z,21.20
2019-04-06T11:44:43.715Z,21.10
2019-04-06T11:47:23.198Z,21.10
2019-04-06T11:50:03.861Z,21.30
2019-04-06T11:52:56.535Z,21.50
2019-04-06T11:55:55.231Z,21.50
2019-04-06T11:58:44.848Z,21.60
2019-04-06T12:01:43.776Z,21.70
2019-04-06T12:04:40.029Z,21.80
2019-04-06T12:07:20.760Z,21.90
2019-04-06T12:10:00.388Z,21.90
2019-04-06T12:13:05.136Z,21.80
2019-04-06T12:15:55.457Z,21.90
2019-04-06T12:18:54.367Z,21.80
2019-04-06T12:21:58.514Z,21.90
2019-04-06T12:24:58.832Z,21.90
2019-04-06T12:27:43.094Z,21.90
2019-04-06T12:30:51.571Z,21.70
2019-04-06T12:33:47.793Z,21.60
2019-04-06T12:36:29.239Z,21.50
2019-04-06T12:39:18.562Z,21.50
2019-04-06T12:42:20.118Z,21.50
2019-04-06T12:45:19.518Z,21.50
2019-04-06T12:48:12.055Z,21.50
2019-04-06T12:51:04.103Z,21.40
2019-04-06T12:53:53.720Z,21.50
2019-04-06T12:56:42.146Z,21.70
2019-04-06T12:59:23.599Z,21.80
2019-04-06T13:02:20.201Z,22.00
2019-04-06T13:05:24.915Z,22.30
2019-04-06T13:08:27.051Z,22.80
2019-04-06T13:11:20.005Z,23.50
2019-04-06T13:14:08.521Z,24.10
2019-04-06T13:16:56.634Z,24.00
2019-04-06T13:19:48.986Z,24.40
2019-04-06T13:22:39.593Z,24.60
2019-04-06T13:25:35.974Z,24.70
2019-04-06T13:28:24.828Z,24.80
2019-04-06T13:31:26.964Z,25.10
2019-04-06T13:34:26.299Z,25.00
2019-04-06T13:37:06.844Z,24.80
2019-04-06T13:40:01.516Z,25.00
2019-04-06T13:43:00.939Z,24.90
2019-04-06T13:45:59.533Z,25.20
2019-04-06T13:48:39.298Z,25.20
2019-04-06T13:51:27.797Z,25.50
2019-04-06T13:54:17.749Z,25.40
2019-04-06T13:57:16.772Z,25.20
2019-04-06T14:00:09.391Z,25.80
2019-04-06T14:03:03.624Z,25.30
2019-04-06T14:05:53.174Z,25.40
2019-04-06T14:08:43.290Z,25.40
2019-04-06T14:11:51.314Z,25.60
2019-04-06T14:14:41.263Z,25.40
2019-04-06T14:17:29.830Z,25.40
2019-04-06T14:20:21.386Z,25.50
2019-04-06T14:23:17.944Z,25.40
2019-04-06T14:26:20.059Z,25.20
2019-04-06T14:29:05.200Z,25.20
2019-04-06T14:31:47.742Z,25.30
2019-04-06T14:34:44.054Z,25.10
2019-04-06T14:37:28.408Z,24.90
2019-04-06T14:40:16.755Z,24.80
2019-04-06T14:43:05.513Z,25.10
2019-04-06T14:46:07.681Z,25.80
2019-04-06T14:49:17.242Z,26.10
2019-04-06T14:51:58.939Z,25.80
2019-04-06T14:54:48.479Z,25.10
2019-04-06T14:57:25.098Z,25.10
2019-04-06T15:00:14.626Z,25.60
2019-04-06T15:03:22.423Z,25.90
2019-04-06T15:06:10.505Z,26.10
2019-04-06T15:09:06.450Z,26.10
2019-04-06T15:12:03.964Z,26.40
2019-04-06T15:14:53.334Z,25.80
2019-04-06T15:17:30.182Z,25.40
2019-04-06T15:20:06.802Z,25.20
2019-04-06T15:22:59.279Z,25.00
2019-04-06T15:25:36.909Z,24.70
2019-04-06T15:28:33.192Z,24.40
2019-04-06T15:31:29.063Z,24.10
2019-04-06T15:34:14.255Z,23.80
2019-04-06T15:36:52.274Z,23.80
2019-04-06T15:39:40.675Z,23.60
2019-04-06T15:42:21.729Z,23.20
2019-04-06T15:45:11.416Z,23.30
2019-04-06T15:48:16.272Z,23.00
2019-04-06T15:50:58.695Z,22.50
2019-04-06T15:53:57.510Z,21.90
2019-04-06T15:56:41.350Z,21.50
2019-04-06T15:59:37.156Z,21.20
2019-04-06T16:02:26.945Z,20.90
2019-04-06T16:05:25.797Z,20.70
2019-04-06T16:08:11.176Z,20.50
2019-04-06T16:10:56.527Z,20.50
2019-04-06T16:13:55.676Z,20.40
2019-04-06T16:16:45.281Z,20.30
2019-04-06T16:19:43.918Z,20.10
2019-04-06T16:22:33.784Z,20.10
2019-04-06T16:25:32.660Z,20.00
2019-04-06T16:28:22.371Z,20.00
2019-04-06T16:31:03.080Z,20.00
2019-04-06T16:33:51.722Z,19.90
2019-04-06T16:36:44.414Z,19.80
2019-04-06T16:39:31.015Z,19.80
2019-04-06T16:42:20.679Z,19.70
2019-04-06T16:45:13.831Z,19.60
2019-04-06T16:48:06.487Z,19.60
2019-04-06T16:50:56.713Z,19.60
2019-04-06T16:53:55.617Z,19.40
2019-04-06T16:56:45.499Z,19.40
2019-04-06T16:59:23.959Z,19.30
2019-04-06T17:02:09.015Z,19.20
2019-04-06T17:04:54.687Z,19.20
2019-04-06T17:08:10.221Z,19.10
2019-04-06T17:10:42.592Z,19.10
2019-04-06T17:13:24.716Z,19.00
2019-04-06T17:16:09.664Z,18.90
2019-04-06T17:18:51.187Z,18.80
2019-04-06T17:21:41.181Z,18.70
2019-04-06T17:24:18.120Z,18.70
2019-04-06T17:27:06.449Z,18.60
2019-04-06T17:29:52.686Z,18.60
2019-04-06T17:32:46.020Z,18.50
2019-04-06T17:35:36.460Z,18.30
2019-04-06T17:38:23.130Z,18.30
2019-04-06T17:41:15.612Z,18.30
2019-04-06T17:44:02.303Z,18.20
2019-04-06T17:47:10.346Z,18.00
2019-04-06T17:50:11.058Z,18.00
2019-04-06T17:53:10.655Z,17.90
2019-04-06T17:56:00.475Z,17.80
2019-04-06T17:58:44.081Z,17.70
2019-04-06T18:01:41.118Z,17.60
2019-04-06T18:04:23.874Z,17.50
2019-04-06T18:07:22.423Z,17.30
2019-04-06T18:10:03.387Z,17.30
2019-04-06T18:12:42.249Z,17.20
2019-04-06T18:15:13.232Z,17.10
2019-04-06T18:17:43.920Z,17.00
2019-04-06T18:20:15.521Z,16.90
2019-04-06T18:22:46.746Z,16.90
2019-04-06T18:25:17.686Z,16.80
2019-04-06T18:27:48.432Z,16.70
2019-04-06T18:30:20.377Z,16.70
2019-04-06T18:33:10.443Z,16.60
2019-04-06T18:35:41.561Z,16.60
2019-04-06T18:38:31.113Z,16.50
2019-04-06T18:41:02.528Z,16.40
2019-04-06T18:43:33.313Z,16.30
2019-04-06T18:46:03.966Z,16.20
2019-04-06T18:48:34.787Z,16.10
2019-04-06T18:51:05.907Z,16.00
2019-04-06T18:53:37.074Z,15.90
2019-04-06T18:56:07.877Z,15.80
2019-04-06T18:58:39.931Z,15.80
2019-04-06T19:01:13.374Z,15.80
2019-04-06T19:03:45.156Z,15.70
2019-04-06T19:06:16.273Z,15.70
2019-04-06T19:08:47.494Z,15.60
2019-04-06T19:11:18.760Z,15.50
2019-04-06T19:13:50.212Z,15.50
2019-04-06T19:16:21.997Z,15.50
2019-04-06T19:18:52.666Z,15.40
2019-04-06T19:21:23.340Z,15.30
2019-04-06T19:23:56.208Z,15.40
2019-04-06T19:26:27.074Z,15.30
2019-04-06T19:28:58.148Z,15.30
2019-04-06T19:31:28.893Z,15.20
2019-04-06T19:34:00.442Z,15.20
2019-04-06T19:36:31.367Z,15.10
2019-04-06T19:39:02.105Z,15.10
2019-04-06T19:41:32.792Z,15.00
2019-04-06T19:44:03.650Z,15.00
2019-04-06T19:46:34.338Z,15.10
2019-04-06T19:49:13.224Z,15.00
2019-04-06T19:51:44.487Z,14.90
2019-04-06T19:54:15.075Z,14.90
2019-04-06T19:56:54.311Z,14.90
2019-04-06T19:59:25.147Z,14.80
2019-04-06T20:01:56.750Z,14.70
2019-04-06T20:04:28.457Z,14.70
2019-04-06T20:06:59.109Z,14.60
2019-04-06T20:09:29.752Z,14.60
2019-04-06T20:12:05.673Z,14.60
2019-04-06T20:14:33.665Z,14.50
2019-04-06T20:17:04.361Z,14.50
2019-04-06T20:19:35.118Z,14.50
2019-04-06T20:22:05.931Z,14.40
2019-04-06T20:24:36.610Z,14.40
2019-04-06T20:27:08.222Z,14.40
2019-04-06T20:29:51.887Z,14.30
2019-04-06T20:32:35.590Z,14.30
2019-04-06T20:35:09.262Z,14.30
2019-04-06T20:37:40.169Z,14.10
2019-04-06T20:40:11.870Z,14.10
2019-04-06T20:42:43.767Z,14.00
2019-04-06T20:45:14.665Z,14.00
2019-04-06T20:47:45.949Z,13.90
2019-04-06T20:50:22.582Z,13.90
2019-04-06T20:52:53.411Z,13.90
2019-04-06T20:55:24.323Z,13.80
2019-04-06T20:57:55.410Z,13.70
2019-04-06T21:00:26.783Z,13.70
2019-04-06T21:02:58.219Z,13.70
2019-04-06T21:05:29.203Z,13.70
2019-04-06T21:08:00.790Z,13.60
2019-04-06T21:10:32.595Z,13.50
2019-04-06T21:13:03.574Z,13.50
2019-04-06T21:15:35.041Z,13.50
2019-04-06T21:18:06.619Z,13.40
2019-04-06T21:20:38.040Z,13.40
2019-04-06T21:23:08.853Z,13.30
2019-04-06T21:25:40.194Z,13.30
2019-04-06T21:28:10.981Z,13.30
2019-04-06T21:30:42.419Z,13.30
2019-04-06T21:33:18.606Z,13.20
2019-04-06T21:35:49.339Z,13.10
2019-04-06T21:38:20.997Z,13.00
2019-04-06T21:40:54.383Z,13.00
2019-04-06T21:43:25.151Z,13.00
2019-04-06T21:45:55.816Z,12.90
2019-04-06T21:48:27.024Z,12.80
2019-04-06T21:50:58.229Z,12.80
2019-04-06T21:53:29.285Z,12.80
2019-04-06T21:56:03.361Z,12.80
2019-04-06T21:58:33.519Z,12.80
2019-04-06T22:01:04.881Z,12.70
2019-04-06T22:03:36.442Z,12.60
2019-04-06T22:06:07.900Z,12.60
2019-04-06T22:08:39.518Z,12.50
2019-04-06T22:11:11.971Z,12.50
2019-04-06T22:13:43.136Z,12.40
2019-04-06T22:16:14.135Z,12.30
2019-04-06T22:18:45.311Z,12.20
2019-04-06T22:21:16.352Z,12.10
2019-04-06T22:23:47.956Z,12.00
2019-04-06T22:26:19.428Z,12.00
2019-04-06T22:28:50.858Z,11.90
2019-04-06T22:31:22.407Z,11.80
2019-04-06T22:33:53.485Z,11.60
2019-04-06T22:36:25.526Z,11.40
2019-04-06T22:38:57.216Z,11.10
2019-04-06T22:41:28.994Z,10.90
2019-04-06T22:44:00.706Z,10.80
2019-04-06T22:46:32.464Z,10.80
2019-04-06T22:49:03.817Z,10.60
2019-04-06T22:51:35.921Z,10.50
2019-04-06T22:54:06.854Z,10.40
2019-04-06T22:56:38.719Z,10.40
2019-04-06T22:59:09.680Z,10.30
2019-04-06T23:01:42.510Z,10.10
2019-04-06T23:04:28.722Z,10.00
2019-04-06T23:07:08.489Z,9.90
2019-04-06T23:09:39.778Z,9.90
2019-04-06T23:12:11.879Z,9.80
2019-04-06T23:14:43.090Z,9.70
2019-04-06T23:17:14.650Z,9.60
2019-04-06T23:19:45.400Z,9.70
2019-04-06T23:22:16.089Z,9.90
2019-04-06T23:24:46.893Z,10.10
2019-04-06T23:27:17.792Z,10.20
2019-04-06T23:29:48.635Z,10.40
2019-04-06T23:32:20.365Z,10.50
2019-04-06T23:34:58.886Z,10.50
2019-04-06T23:37:24.222Z,10.50
2019-04-06T23:39:55.258Z,10.60
2019-04-06T23:42:26.150Z,10.50
2019-04-06T23:44:56.900Z,10.40
2019-04-06T23:47:27.567Z,10.40
2019-04-06T23:49:58.383Z,10.40
2019-04-06T23:52:29.694Z,10.30
2019-04-06T23:55:01.149Z,10.30
2019-04-06T23:57:32.030Z,10.30
